createdAt,value
2022-07-26T00:00:16.705Z,22.96
2022-07-26T00:02:48.200Z,22.99
2022-07-26T00:05:21.164Z,23.06
2022-07-26T00:07:50.801Z,23.06
2022-07-26T00:10:20.460Z,23.12
2022-07-26T00:12:50.178Z,23.04
2022-07-26T00:15:19.873Z,23.02
2022-07-26T00:17:49.564Z,23.10
2022-07-26T00:20:21.874Z,23.13
2022-07-26T00:22:57.422Z,23.16
2022-07-26T00:25:27.076Z,23.18
2022-07-26T00:27:56.754Z,23.23
2022-07-26T00:30:27.363Z,23.27
2022-07-26T00:32:56.998Z,23.23
2022-07-26T00:35:29.322Z,23.22
2022-07-26T00:37:59.077Z,23.13
2022-07-26T00:40:28.831Z,23.17
2022-07-26T00:42:58.489Z,23.24
2022-07-26T00:45:28.389Z,23.15
2022-07-26T00:47:58.205Z,23.12
2022-07-26T00:50:30.468Z,23.05
2022-07-26T00:53:00.332Z,23.09
2022-07-26T00:55:30.542Z,23.11
2022-07-26T00:58:01.318Z,23.13
2022-07-26T01:00:31.545Z,23.12
2022-07-26T01:03:03.031Z,23.09
2022-07-26T01:05:35.663Z,23.11
2022-07-26T01:08:06.109Z,23.06
2022-07-26T01:10:35.799Z,22.99
2022-07-26T01:13:05.479Z,22.96
2022-07-26T01:15:35.189Z,23.03
2022-07-26T01:18:04.830Z,23.09
2022-07-26T01:20:37.100Z,23.08
2022-07-26T01:23:10.447Z,23.05
2022-07-26T01:25:43.439Z,22.99
2022-07-26T01:28:20.175Z,22.95
2022-07-26T01:30:50.722Z,23.00
2022-07-26T01:33:20.479Z,23.07
2022-07-26T01:35:50.823Z,22.94
2022-07-26T01:38:23.105Z,22.96
2022-07-26T01:40:52.790Z,22.86
2022-07-26T01:43:22.533Z,22.82
2022-07-26T01:45:52.338Z,22.83
2022-07-26T01:48:22.074Z,22.81
2022-07-26T01:50:51.769Z,22.72
2022-07-26T01:53:24.092Z,22.45
2022-07-26T01:55:53.847Z,22.35
2022-07-26T01:58:24.868Z,22.71
2022-07-26T02:00:54.787Z,22.71
2022-07-26T02:03:24.430Z,22.60
2022-07-26T02:05:54.122Z,22.61
2022-07-26T02:08:26.385Z,22.58
2022-07-26T02:11:05.082Z,22.58
2022-07-26T02:13:36.544Z,22.55
2022-07-26T02:16:07.824Z,22.30
2022-07-26T02:18:40.548Z,22.42
2022-07-26T02:21:10.934Z,22.43
2022-07-26T02:23:43.245Z,22.48
2022-07-26T02:26:12.956Z,22.39
2022-07-26T02:28:42.713Z,22.36
2022-07-26T02:31:15.322Z,22.30
2022-07-26T02:33:45.488Z,22.31
2022-07-26T02:36:15.157Z,21.95
2022-07-26T02:38:47.477Z,22.22
2022-07-26T02:41:17.145Z,22.19
2022-07-26T02:43:46.896Z,22.11
2022-07-26T02:46:16.667Z,22.23
2022-07-26T02:48:46.466Z,22.09
2022-07-26T02:51:17.443Z,22.17
2022-07-26T02:53:49.707Z,22.08
2022-07-26T02:56:19.441Z,22.01
2022-07-26T02:58:49.140Z,22.02
2022-07-26T03:01:18.847Z,22.04
2022-07-26T03:03:50.890Z,22.02
2022-07-26T03:06:21.697Z,22.03
2022-07-26T03:08:53.924Z,22.13
2022-07-26T03:11:23.593Z,22.03
2022-07-26T03:13:53.292Z,22.03
2022-07-26T03:16:27.475Z,22.05
2022-07-26T03:18:59.322Z,22.05
2022-07-26T03:21:29.101Z,21.69
2022-07-26T03:24:01.398Z,21.90
2022-07-26T03:26:31.648Z,21.86
2022-07-26T03:29:01.334Z,21.85
2022-07-26T03:31:31.138Z,21.89
2022-07-26T03:34:03.235Z,21.82
2022-07-26T03:36:33.220Z,21.77
2022-07-26T03:39:05.962Z,21.87
2022-07-26T03:41:35.615Z,21.67
2022-07-26T03:44:05.833Z,21.78
2022-07-26T03:46:35.843Z,21.76
2022-07-26T03:49:05.758Z,21.88
2022-07-26T03:51:36.023Z,21.82
2022-07-26T03:54:09.170Z,21.70
2022-07-26T03:56:36.794Z,21.69
2022-07-26T03:59:08.302Z,21.74
2022-07-26T04:01:41.849Z,21.60
2022-07-26T04:04:12.451Z,21.69
2022-07-26T04:06:43.124Z,21.51
2022-07-26T04:09:16.174Z,21.63
2022-07-26T04:11:47.998Z,21.56
2022-07-26T04:14:17.674Z,21.59
2022-07-26T04:16:47.499Z,21.66
2022-07-26T04:19:17.234Z,21.38
2022-07-26T04:21:46.915Z,21.67
2022-07-26T04:24:19.152Z,21.66
2022-07-26T04:26:54.892Z,21.67
2022-07-26T04:29:24.573Z,21.83
2022-07-26T04:31:54.293Z,21.91
2022-07-26T04:34:23.997Z,21.78
2022-07-26T04:36:53.683Z,21.83
2022-07-26T04:39:25.977Z,21.73
2022-07-26T04:41:55.665Z,21.61
2022-07-26T04:44:25.293Z,21.81
2022-07-26T04:46:55.049Z,21.65
2022-07-26T04:49:24.777Z,21.34
2022-07-26T04:51:59.042Z,21.63
2022-07-26T04:54:31.710Z,21.57
2022-07-26T04:57:01.425Z,21.68
2022-07-26T04:59:32.603Z,21.77
2022-07-26T05:02:02.715Z,21.85
2022-07-26T05:04:32.562Z,21.86
2022-07-26T05:07:02.588Z,21.96
2022-07-26T05:09:35.842Z,21.88
2022-07-26T05:12:05.993Z,21.94
2022-07-26T05:14:37.496Z,21.89
2022-07-26T05:17:09.034Z,21.86
2022-07-26T05:19:44.801Z,21.66
2022-07-26T05:22:17.318Z,21.87
2022-07-26T05:24:49.869Z,22.03
2022-07-26T05:27:19.619Z,21.96
2022-07-26T05:29:52.783Z,22.05
2022-07-26T05:32:22.588Z,22.08
2022-07-26T05:34:52.409Z,22.22
2022-07-26T05:37:22.139Z,22.48
2022-07-26T05:39:55.473Z,22.59
2022-07-26T05:42:26.858Z,22.63
2022-07-26T05:44:56.559Z,22.60
2022-07-26T05:47:26.421Z,22.46
2022-07-26T05:49:59.813Z,22.11
2022-07-26T05:52:29.585Z,22.50
2022-07-26T05:55:02.083Z,22.41
2022-07-26T05:57:32.916Z,22.27
2022-07-26T06:00:03.018Z,22.55
2022-07-26T06:02:41.954Z,22.76
2022-07-26T06:05:12.994Z,22.97
2022-07-26T06:07:42.677Z,23.09
2022-07-26T06:10:15.782Z,23.28
2022-07-26T06:12:45.476Z,23.22
2022-07-26T06:15:17.973Z,23.52
2022-07-26T06:17:47.668Z,23.52
2022-07-26T06:20:17.342Z,23.31
2022-07-26T06:22:47.100Z,23.24
2022-07-26T06:25:20.585Z,23.78
2022-07-26T06:27:50.335Z,23.53
2022-07-26T06:30:20.229Z,23.61
2022-07-26T06:32:50.973Z,23.66
2022-07-26T06:35:20.778Z,23.35
2022-07-26T06:37:50.439Z,23.31
2022-07-26T06:40:25.004Z,23.09
2022-07-26T06:42:58.048Z,22.97
2022-07-26T06:45:31.790Z,22.98
2022-07-26T06:48:01.666Z,22.92
2022-07-26T06:50:31.575Z,22.80
2022-07-26T06:53:01.427Z,22.89
2022-07-26T06:55:33.763Z,22.59
2022-07-26T06:58:03.576Z,23.05
2022-07-26T07:00:34.486Z,23.45
2022-07-26T07:03:04.261Z,23.36
2022-07-26T07:05:34.009Z,23.49
2022-07-26T07:08:04.827Z,23.31
2022-07-26T07:10:39.574Z,23.22
2022-07-26T07:13:10.964Z,23.29
2022-07-26T07:15:40.737Z,23.43
2022-07-26T07:18:10.565Z,23.94
2022-07-26T07:20:41.080Z,23.98
2022-07-26T07:23:10.838Z,23.95
2022-07-26T07:25:46.400Z,23.89
2022-07-26T07:28:18.967Z,23.68
2022-07-26T07:30:50.222Z,23.76
2022-07-26T07:33:22.840Z,23.82
2022-07-26T07:35:53.904Z,24.09
2022-07-26T07:38:23.794Z,24.15
2022-07-26T07:40:56.902Z,23.86
2022-07-26T07:43:26.735Z,23.98
2022-07-26T07:45:57.774Z,24.16
2022-07-26T07:48:27.599Z,24.35
2022-07-26T07:50:58.387Z,24.82
2022-07-26T07:53:28.384Z,24.50
2022-07-26T07:56:03.544Z,24.75
2022-07-26T07:58:33.282Z,25.09
2022-07-26T08:01:02.997Z,25.19
2022-07-26T08:03:38.274Z,25.04
2022-07-26T08:06:11.810Z,25.17
2022-07-26T08:08:41.539Z,24.97
2022-07-26T08:11:15.308Z,24.62
2022-07-26T08:13:48.845Z,24.59
2022-07-26T08:16:18.565Z,24.37
2022-07-26T08:18:57.663Z,24.24
2022-07-26T08:21:29.128Z,24.10
2022-07-26T08:23:59.512Z,24.22
2022-07-26T08:26:32.947Z,24.12
2022-07-26T08:29:02.762Z,23.40
2022-07-26T08:31:33.589Z,22.78
2022-07-26T08:34:03.391Z,22.01
2022-07-26T08:36:33.338Z,21.73
2022-07-26T08:39:03.626Z,21.68
2022-07-26T08:41:36.580Z,21.54
2022-07-26T08:44:11.427Z,21.25
2022-07-26T08:46:44.178Z,20.92
2022-07-26T08:49:15.353Z,20.64
2022-07-26T08:51:46.653Z,20.78
2022-07-26T08:54:18.281Z,20.46
2022-07-26T08:56:56.187Z,20.57
2022-07-26T08:59:26.994Z,20.70
2022-07-26T09:01:59.221Z,20.75
2022-07-26T09:04:34.049Z,20.96
2022-07-26T09:07:08.674Z,21.25
2022-07-26T09:09:41.411Z,21.38
2022-07-26T09:12:22.411Z,21.55
2022-07-26T09:14:53.236Z,21.74
2022-07-26T09:17:25.605Z,21.80
2022-07-26T09:20:09.575Z,21.80
2022-07-26T09:22:41.446Z,22.01
2022-07-26T09:25:24.047Z,22.15
2022-07-26T09:27:56.862Z,22.35
2022-07-26T09:30:26.649Z,22.59
2022-07-26T09:33:02.211Z,22.86
2022-07-26T09:35:51.205Z,22.90
2022-07-26T09:38:22.120Z,23.11
2022-07-26T09:40:55.442Z,23.14
2022-07-26T09:43:38.764Z,23.22
2022-07-26T09:46:11.008Z,23.23
2022-07-26T09:49:08.030Z,23.56
2022-07-26T09:51:38.841Z,23.41
2022-07-26T09:54:09.182Z,23.42
2022-07-26T09:56:47.137Z,23.10
2022-07-26T09:59:21.687Z,22.73
2022-07-26T10:01:52.964Z,22.15
2022-07-26T10:04:23.124Z,21.87
2022-07-26T10:06:53.549Z,21.28
2022-07-26T10:09:25.690Z,20.80
2022-07-26T10:11:59.373Z,20.79
2022-07-26T10:14:51.320Z,21.19
2022-07-26T10:17:43.213Z,21.16
2022-07-26T10:20:44.829Z,21.60
2022-07-26T10:23:37.624Z,21.55
2022-07-26T10:26:09.877Z,21.70
2022-07-26T10:28:43.278Z,21.47
2022-07-26T10:31:33.431Z,21.11
2022-07-26T10:34:04.696Z,21.23
2022-07-26T10:36:39.342Z,20.75
2022-07-26T10:39:17.219Z,20.42
2022-07-26T10:41:50.026Z,20.67
2022-07-26T10:44:22.609Z,20.72
2022-07-26T10:47:18.612Z,20.89
2022-07-26T10:50:00.008Z,21.10
2022-07-26T10:52:32.187Z,21.11
2022-07-26T10:55:11.873Z,21.22
2022-07-26T10:57:44.958Z,21.33
2022-07-26T11:00:24.594Z,21.51
2022-07-26T11:03:02.866Z,21.80
2022-07-26T11:05:35.690Z,21.89
2022-07-26T11:08:11.177Z,22.20
2022-07-26T11:10:42.875Z,22.46
2022-07-26T11:13:17.318Z,22.35
2022-07-26T11:15:51.001Z,22.81
2022-07-26T11:18:28.169Z,23.13
2022-07-26T11:21:00.203Z,23.52
2022-07-26T11:23:35.490Z,23.58
2022-07-26T11:26:14.867Z,23.55
2022-07-26T11:28:59.419Z,23.56
2022-07-26T11:31:51.341Z,23.49
2022-07-26T11:34:35.649Z,23.62
2022-07-26T11:37:07.690Z,23.43
2022-07-26T11:39:38.906Z,22.92
2022-07-26T11:42:11.831Z,23.54
2022-07-26T11:44:45.697Z,23.35
2022-07-26T11:47:20.002Z,22.97
2022-07-26T11:50:12.580Z,22.56
2022-07-26T11:52:42.277Z,22.10
2022-07-26T11:55:13.034Z,22.19
2022-07-26T11:57:44.851Z,22.06
2022-07-26T12:00:20.890Z,22.10
2022-07-26T12:02:55.801Z,22.16
2022-07-26T12:05:28.890Z,22.24
2022-07-26T12:08:00.951Z,22.25
2022-07-26T12:10:30.956Z,22.23
2022-07-26T12:13:11.508Z,22.19
2022-07-26T12:15:51.983Z,22.68
2022-07-26T12:18:26.888Z,22.87
2022-07-26T12:21:06.720Z,22.98
2022-07-26T12:23:45.850Z,22.88
2022-07-26T12:26:26.339Z,22.57
2022-07-26T12:28:56.848Z,22.46
2022-07-26T12:31:31.132Z,22.74
2022-07-26T12:34:02.618Z,22.96
2022-07-26T12:36:36.473Z,23.03
2022-07-26T12:39:07.633Z,22.80
2022-07-26T12:41:39.610Z,22.87
2022-07-26T12:44:12.706Z,22.88
2022-07-26T12:46:44.956Z,23.13
2022-07-26T12:49:16.794Z,23.21
2022-07-26T12:51:50.080Z,23.15
2022-07-26T12:54:19.819Z,22.85
2022-07-26T12:56:49.617Z,22.84
2022-07-26T12:59:19.913Z,22.92
2022-07-26T13:01:49.714Z,22.92
2022-07-26T13:04:19.537Z,23.02
2022-07-26T13:06:51.842Z,23.16
2022-07-26T13:09:21.549Z,22.95
2022-07-26T13:11:52.330Z,22.77
2022-07-26T13:14:22.130Z,22.49
2022-07-26T13:16:53.149Z,21.96
2022-07-26T13:19:23.103Z,21.53
2022-07-26T13:21:55.462Z,21.43
2022-07-26T13:24:25.414Z,21.29
2022-07-26T13:26:57.430Z,21.39
2022-07-26T13:29:31.155Z,21.28
2022-07-26T13:32:02.031Z,21.48
2022-07-26T13:34:35.088Z,21.38
2022-07-26T13:37:08.408Z,21.58
2022-07-26T13:39:38.363Z,21.62
2022-07-26T13:42:10.014Z,21.55
2022-07-26T13:44:39.691Z,21.76
2022-07-26T13:47:09.660Z,21.99
2022-07-26T13:49:39.446Z,22.00
2022-07-26T13:52:16.623Z,21.87
2022-07-26T13:54:46.725Z,22.24
2022-07-26T13:57:16.450Z,21.81
2022-07-26T13:59:47.202Z,22.16
2022-07-26T14:02:18.074Z,22.13
2022-07-26T14:04:48.623Z,22.31
2022-07-26T14:07:20.952Z,22.60
2022-07-26T14:09:50.858Z,22.61
2022-07-26T14:12:20.573Z,22.63
2022-07-26T14:14:50.278Z,22.44
2022-07-26T14:17:19.987Z,22.66
2022-07-26T14:19:50.930Z,22.85
2022-07-26T14:22:25.644Z,22.80
2022-07-26T14:24:55.452Z,22.59
2022-07-26T14:27:26.317Z,22.47
2022-07-26T14:29:56.112Z,22.43
2022-07-26T14:32:26.215Z,22.44
2022-07-26T14:34:57.091Z,22.58
2022-07-26T14:37:44.016Z,22.53
2022-07-26T14:40:17.843Z,22.54
2022-07-26T14:42:49.091Z,22.67
2022-07-26T14:45:19.496Z,22.78
2022-07-26T14:47:49.388Z,22.74
2022-07-26T14:50:22.894Z,22.60
2022-07-26T14:52:56.367Z,22.79
2022-07-26T14:55:26.147Z,22.69
2022-07-26T14:57:55.911Z,22.69
2022-07-26T15:00:25.645Z,22.57
2022-07-26T15:02:56.520Z,22.41
2022-07-26T15:05:27.917Z,22.43
2022-07-26T15:08:05.520Z,22.47
2022-07-26T15:10:35.862Z,22.30
2022-07-26T15:13:09.579Z,22.18
2022-07-26T15:15:40.395Z,21.65
2022-07-26T15:18:10.354Z,21.64
2022-07-26T15:20:41.826Z,21.57
2022-07-26T15:23:15.339Z,21.76
2022-07-26T15:25:45.278Z,21.84
2022-07-26T15:28:15.041Z,21.95
2022-07-26T15:30:45.204Z,22.01
2022-07-26T15:33:15.209Z,22.24
2022-07-26T15:35:45.937Z,22.18
2022-07-26T15:38:18.337Z,22.55
2022-07-26T15:40:48.075Z,22.86
2022-07-26T15:43:23.906Z,22.51
2022-07-26T15:46:13.611Z,22.42
2022-07-26T15:48:45.696Z,22.42
2022-07-26T15:51:17.257Z,22.66
2022-07-26T15:53:49.605Z,22.73
2022-07-26T15:56:20.442Z,22.78
2022-07-26T15:58:51.219Z,22.59
2022-07-26T16:01:22.039Z,22.90
2022-07-26T16:03:51.853Z,22.74
2022-07-26T16:06:23.990Z,23.18
2022-07-26T16:09:16.076Z,23.27
2022-07-26T16:11:47.442Z,23.32
2022-07-26T16:14:17.251Z,23.11
2022-07-26T16:16:47.561Z,22.82
2022-07-26T16:19:17.358Z,22.64
2022-07-26T16:21:48.111Z,22.49
2022-07-26T16:24:21.538Z,22.44
2022-07-26T16:26:52.243Z,22.38
2022-07-26T16:29:21.966Z,22.45
2022-07-26T16:31:54.645Z,22.36
2022-07-26T16:34:24.690Z,22.24
2022-07-26T16:36:54.688Z,22.28
2022-07-26T16:39:27.009Z,22.42
2022-07-26T16:41:56.767Z,22.25
2022-07-26T16:44:26.794Z,22.14
2022-07-26T16:46:57.406Z,22.32
2022-07-26T16:49:27.264Z,22.35
2022-07-26T16:51:59.145Z,22.33
2022-07-26T16:54:32.958Z,22.16
2022-07-26T16:57:04.529Z,22.38
2022-07-26T16:59:35.276Z,22.45
2022-07-26T17:02:05.278Z,22.13
2022-07-26T17:04:36.130Z,21.94
2022-07-26T17:07:24.478Z,21.92
2022-07-26T17:09:58.294Z,21.87
2022-07-26T17:12:28.011Z,21.80
2022-07-26T17:14:58.125Z,21.96
2022-07-26T17:17:28.949Z,21.83
2022-07-26T17:19:59.730Z,21.97
2022-07-26T17:22:29.510Z,22.01
2022-07-26T17:25:01.876Z,21.95
2022-07-26T17:27:31.576Z,22.14
2022-07-26T17:30:06.481Z,22.14
2022-07-26T17:32:38.142Z,22.10
2022-07-26T17:35:09.276Z,22.02
2022-07-26T17:37:40.034Z,21.84
2022-07-26T17:40:14.350Z,21.71
2022-07-26T17:42:46.136Z,21.95
2022-07-26T17:45:15.941Z,21.48
2022-07-26T17:47:47.000Z,21.91
2022-07-26T17:50:35.891Z,21.85
2022-07-26T17:53:06.425Z,21.83
2022-07-26T17:55:39.778Z,21.79
2022-07-26T17:58:09.545Z,21.58
2022-07-26T18:00:39.498Z,21.57
2022-07-26T18:03:10.291Z,21.57
2022-07-26T18:05:41.526Z,21.54
2022-07-26T18:08:11.439Z,21.36
2022-07-26T18:10:48.955Z,21.25
2022-07-26T18:13:20.550Z,21.10
2022-07-26T18:15:50.489Z,20.92
2022-07-26T18:18:22.096Z,21.17
2022-07-26T18:20:52.540Z,21.14
2022-07-26T18:23:23.552Z,21.16
2022-07-26T18:25:58.058Z,21.16
2022-07-26T18:28:27.943Z,21.11
2022-07-26T18:30:58.782Z,21.06
2022-07-26T18:33:28.545Z,20.79
2022-07-26T18:36:02.468Z,20.90
2022-07-26T18:38:33.243Z,21.08
2022-07-26T18:41:06.107Z,20.62
2022-07-26T18:43:36.290Z,21.10
2022-07-26T18:46:06.474Z,21.29
2022-07-26T18:48:37.546Z,21.07
2022-07-26T18:51:11.586Z,21.02
2022-07-26T18:53:42.344Z,20.72
2022-07-26T18:56:15.887Z,20.73
2022-07-26T18:58:45.761Z,20.72
2022-07-26T19:01:16.591Z,20.61
2022-07-26T19:03:46.560Z,20.60
2022-07-26T19:06:16.470Z,20.62
2022-07-26T19:08:46.376Z,21.34
2022-07-26T19:11:18.733Z,20.99
2022-07-26T19:13:49.569Z,20.94
2022-07-26T19:16:20.648Z,20.65
2022-07-26T19:18:55.341Z,20.63
2022-07-26T19:21:27.313Z,20.73
2022-07-26T19:23:57.095Z,20.72
2022-07-26T19:26:30.580Z,20.67
2022-07-26T19:29:00.392Z,20.47
2022-07-26T19:31:30.183Z,20.30
2022-07-26T19:34:00.193Z,20.17
2022-07-26T19:36:31.005Z,20.15
2022-07-26T19:39:01.343Z,20.22
2022-07-26T19:41:34.675Z,20.03
2022-07-26T19:44:05.532Z,19.90
2022-07-26T19:46:37.724Z,20.10
2022-07-26T19:49:07.553Z,19.95
2022-07-26T19:51:37.470Z,20.07
2022-07-26T19:54:07.527Z,20.18
2022-07-26T19:56:41.885Z,20.20
2022-07-26T19:59:11.889Z,20.05
2022-07-26T20:01:42.181Z,20.24
2022-07-26T20:04:13.259Z,20.04
2022-07-26T20:06:43.179Z,19.95
2022-07-26T20:09:13.331Z,19.89
2022-07-26T20:11:50.941Z,19.83
2022-07-26T20:14:21.865Z,19.87
2022-07-26T20:16:56.073Z,19.71
2022-07-26T20:19:28.327Z,19.61
2022-07-26T20:21:59.151Z,19.53
2022-07-26T20:24:29.378Z,19.74
2022-07-26T20:27:02.747Z,19.54
2022-07-26T20:29:32.726Z,19.45
2022-07-26T20:32:03.939Z,19.44
2022-07-26T20:34:35.202Z,19.31
2022-07-26T20:37:05.133Z,19.35
2022-07-26T20:39:36.092Z,19.22
2022-07-26T20:42:09.313Z,19.47
2022-07-26T20:44:44.580Z,19.56
2022-07-26T20:47:14.347Z,19.57
2022-07-26T20:49:45.167Z,19.65
2022-07-26T20:52:17.208Z,19.78
2022-07-26T20:54:49.127Z,19.72
2022-07-26T20:57:23.662Z,19.71
2022-07-26T20:59:53.625Z,19.77
2022-07-26T21:02:23.583Z,19.84
2022-07-26T21:04:53.845Z,19.85
2022-07-26T21:07:24.677Z,19.75
2022-07-26T21:10:15.605Z,19.71
2022-07-26T21:12:49.425Z,19.70
2022-07-26T21:15:19.339Z,19.74
2022-07-26T21:17:49.106Z,19.71
2022-07-26T21:20:23.186Z,19.72
2022-07-26T21:22:53.343Z,19.68
2022-07-26T21:25:24.435Z,19.58
2022-07-26T21:27:56.939Z,19.39
2022-07-26T21:30:26.708Z,19.46
2022-07-26T21:32:56.669Z,19.09
2022-07-26T21:35:26.597Z,19.17
2022-07-26T21:37:57.416Z,19.36
2022-07-26T21:40:28.472Z,19.11
2022-07-26T21:43:01.959Z,19.13
2022-07-26T21:45:32.844Z,19.06
2022-07-26T21:48:02.622Z,19.23
2022-07-26T21:50:32.877Z,19.34
2022-07-26T21:53:03.302Z,19.34
2022-07-26T21:55:33.003Z,19.20
2022-07-26T21:58:05.321Z,19.27
2022-07-26T22:00:36.715Z,19.25
2022-07-26T22:03:06.661Z,19.20
2022-07-26T22:05:42.610Z,19.13
2022-07-26T22:08:14.242Z,19.16
2022-07-26T22:10:46.243Z,19.08
2022-07-26T22:13:19.220Z,19.01
2022-07-26T22:15:49.852Z,18.28
2022-07-26T22:18:20.349Z,18.97
2022-07-26T22:20:51.311Z,18.83
2022-07-26T22:23:23.074Z,18.85
2022-07-26T22:25:52.810Z,18.63
2022-07-26T22:28:25.346Z,18.42
2022-07-26T22:30:55.169Z,18.25
2022-07-26T22:33:25.457Z,18.33
2022-07-26T22:35:55.428Z,18.67
2022-07-26T22:38:25.277Z,18.63
2022-07-26T22:40:55.137Z,18.63
2022-07-26T22:43:27.623Z,18.70
2022-07-26T22:45:57.430Z,18.44
2022-07-26T22:48:27.327Z,18.25
2022-07-26T22:50:57.190Z,18.55
2022-07-26T22:53:26.866Z,18.49
2022-07-26T22:55:56.718Z,18.15
2022-07-26T22:58:29.117Z,18.11
2022-07-26T23:01:00.558Z,17.99
2022-07-26T23:03:30.588Z,18.41
2022-07-26T23:06:02.982Z,17.90
2022-07-26T23:08:46.961Z,17.98
2022-07-26T23:11:17.353Z,18.01
2022-07-26T23:13:49.744Z,18.35
2022-07-26T23:16:19.510Z,18.04
2022-07-26T23:18:52.584Z,17.96
2022-07-26T23:21:22.438Z,18.23
2022-07-26T23:23:52.806Z,17.98
2022-07-26T23:26:22.590Z,18.13
2022-07-26T23:28:54.959Z,18.27
2022-07-26T23:31:25.018Z,17.66
2022-07-26T23:33:54.976Z,17.79
2022-07-26T23:36:26.635Z,18.13
2022-07-26T23:38:56.687Z,18.11
2022-07-26T23:41:27.135Z,17.41
2022-07-26T23:43:59.549Z,17.91
2022-07-26T23:46:29.493Z,17.93
2022-07-26T23:49:00.573Z,17.88
2022-07-26T23:51:30.374Z,17.80
2022-07-26T23:54:00.339Z,17.68
2022-07-26T23:56:30.106Z,17.76
2022-07-26T23:59:02.542Z,17.71
